createdAt,value
2018-04-12T00:01:59.680Z,60.80
2018-04-12T00:04:26.078Z,60.90
2018-04-12T00:06:52.325Z,61.30
2018-04-12T00:09:19.330Z,61.40
2018-04-12T00:11:45.576Z,61.40
2018-04-12T00:14:11.864Z,61.10
2018-04-12T00:16:38.087Z,61.60
2018-04-12T00:19:05.113Z,62.50
2018-04-12T00:21:31.359Z,61.70
2018-04-12T00:23:57.594Z,62.40
2018-04-12T00:26:23.821Z,62.10
2018-04-12T00:28:50.124Z,62.60
2018-04-12T00:31:16.356Z,62.30
2018-04-12T00:33:42.593Z,62.20
2018-04-12T00:36:09.561Z,62.60
2018-04-12T00:38:35.790Z,62.60
2018-04-12T00:41:02.827Z,62.90
2018-04-12T00:43:29.067Z,62.60
2018-04-12T00:45:55.346Z,63.00
2018-04-12T00:48:21.620Z,62.70
2018-04-12T00:50:47.890Z,63.10
2018-04-12T00:53:20.125Z,63.40
2018-04-12T00:55:47.090Z,63.00
2018-04-12T00:58:13.336Z,62.90
2018-04-12T01:00:39.627Z,62.80
2018-04-12T01:03:05.850Z,62.90
2018-04-12T01:05:32.096Z,63.40
2018-04-12T01:07:58.336Z,63.40
2018-04-12T01:10:24.602Z,64.00
2018-04-12T01:12:50.863Z,63.90
2018-04-12T01:15:17.094Z,63.40
2018-04-12T01:17:43.311Z,63.40
2018-04-12T01:20:09.545Z,64.00
2018-04-12T01:22:35.839Z,64.00
2018-04-12T01:25:02.118Z,64.00
2018-04-12T01:27:29.098Z,64.00
2018-04-12T01:29:55.326Z,63.90
2018-04-12T01:32:21.704Z,64.00
2018-04-12T01:34:47.995Z,64.00
2018-04-12T01:37:14.255Z,63.90
2018-04-12T01:39:40.478Z,64.60
2018-04-12T01:42:06.738Z,64.00
2018-04-12T01:44:32.984Z,63.90
2018-04-12T01:46:59.955Z,63.90
2018-04-12T01:49:26.159Z,63.90
2018-04-12T01:51:52.514Z,63.90
2018-04-12T01:54:19.623Z,64.40
2018-04-12T01:56:45.958Z,64.40
2018-04-12T01:59:12.182Z,64.40
2018-04-12T02:01:38.569Z,64.70
2018-04-12T02:04:04.835Z,65.10
2018-04-12T02:06:31.101Z,64.80
2018-04-12T02:08:57.367Z,65.10
2018-04-12T02:11:23.716Z,65.00
2018-04-12T02:13:50.011Z,65.20
2018-04-12T02:16:16.301Z,65.10
2018-04-12T02:18:42.655Z,64.90
2018-04-12T02:21:08.903Z,64.90
2018-04-12T02:23:35.145Z,64.90
2018-04-12T02:26:01.399Z,65.00
2018-04-12T02:28:27.670Z,64.90
2018-04-12T02:30:53.904Z,65.00
2018-04-12T02:33:20.914Z,65.00
2018-04-12T02:35:47.177Z,65.00
2018-04-12T02:38:13.571Z,65.10
2018-04-12T02:40:39.795Z,65.00
2018-04-12T02:43:06.872Z,64.80
2018-04-12T02:45:33.092Z,64.70
2018-04-12T02:48:00.048Z,64.20
2018-04-12T02:50:26.297Z,64.10
2018-04-12T02:52:52.631Z,64.10
2018-04-12T02:55:19.679Z,64.10
2018-04-12T02:57:45.963Z,64.10
2018-04-12T03:00:12.305Z,64.10
2018-04-12T03:02:38.562Z,64.50
2018-04-12T03:05:04.816Z,64.20
2018-04-12T03:07:31.056Z,64.20
2018-04-12T03:09:57.320Z,64.20
2018-04-12T03:14:55.987Z,64.20
2018-04-12T03:17:23.018Z,64.20
2018-04-12T03:19:49.273Z,64.20
2018-04-12T03:22:16.283Z,64.30
2018-04-12T03:24:42.556Z,64.30
2018-04-12T03:27:08.807Z,64.30
2018-04-12T03:29:37.152Z,64.30
2018-04-12T03:32:03.496Z,64.30
2018-04-12T03:34:29.723Z,64.30
2018-04-12T03:36:55.948Z,64.30
2018-04-12T03:39:22.975Z,64.30
2018-04-12T03:41:49.219Z,64.30
2018-04-12T03:44:15.466Z,64.30
2018-04-12T03:46:41.700Z,64.30
2018-04-12T03:49:08.035Z,64.40
2018-04-12T03:51:34.331Z,64.30
2018-04-12T03:54:00.599Z,64.30
2018-04-12T03:56:26.856Z,64.30
2018-04-12T03:58:53.121Z,64.30
2018-04-12T04:01:19.414Z,64.70
2018-04-12T04:03:45.633Z,64.50
2018-04-12T04:06:11.887Z,65.00
2018-04-12T04:08:38.831Z,64.60
2018-04-12T04:11:05.849Z,64.70
2018-04-12T04:13:32.148Z,64.60
2018-04-12T04:16:10.629Z,65.10
2018-04-12T04:18:49.424Z,65.30
2018-04-12T04:21:15.720Z,65.20
2018-04-12T04:23:42.038Z,65.70
2018-04-12T04:26:08.504Z,65.60
2018-04-12T04:28:34.863Z,65.50
2018-04-12T04:31:01.175Z,65.60
2018-04-12T04:33:27.407Z,65.60
2018-04-12T04:35:53.606Z,65.80
2018-04-12T04:38:19.945Z,66.10
2018-04-12T04:40:46.887Z,65.80
2018-04-12T04:43:13.213Z,65.80
2018-04-12T04:45:39.473Z,65.70
2018-04-12T04:48:06.523Z,65.20
2018-04-12T04:50:32.760Z,65.20
2018-04-12T04:52:59.154Z,65.20
2018-04-12T04:55:25.395Z,65.50
2018-04-12T04:57:51.793Z,65.00
2018-04-12T05:00:18.029Z,65.10
2018-04-12T05:02:44.303Z,65.60
2018-04-12T05:05:10.587Z,65.50
2018-04-12T05:07:36.973Z,65.30
2018-04-12T05:10:03.250Z,65.00
2018-04-12T05:12:29.539Z,65.80
2018-04-12T05:14:55.804Z,65.00
2018-04-12T05:17:23.341Z,64.70
2018-04-12T05:22:48.679Z,64.50
2018-04-12T05:25:16.017Z,64.50
2018-04-12T05:27:42.352Z,64.50
2018-04-12T05:30:14.277Z,64.50
2018-04-12T05:32:40.561Z,64.60
2018-04-12T05:35:11.156Z,64.60
2018-04-12T05:37:39.611Z,64.70
2018-04-12T05:40:09.433Z,64.60
2018-04-12T05:42:35.958Z,64.60
2018-04-12T05:45:03.008Z,64.20
2018-04-12T05:47:29.290Z,64.10
2018-04-12T05:49:56.380Z,63.80
2018-04-12T05:52:23.943Z,63.30
2018-04-12T05:54:50.243Z,63.20
2018-04-12T05:57:16.573Z,63.00
2018-04-12T05:59:42.831Z,63.40
2018-04-12T06:02:09.156Z,62.70
2018-04-12T06:04:37.501Z,62.00
2018-04-12T06:07:03.922Z,61.60
2018-04-12T06:09:30.965Z,61.40
2018-04-12T06:11:57.275Z,61.30
2018-04-12T06:14:23.507Z,61.80
2018-04-12T06:16:49.794Z,61.30
2018-04-12T06:19:16.056Z,60.90
2018-04-12T06:21:43.328Z,60.60
2018-04-12T06:24:09.845Z,60.50
2018-04-12T06:26:36.411Z,61.10
2018-04-12T06:29:07.612Z,60.50
2018-04-12T06:31:36.922Z,60.30
2018-04-12T06:34:05.708Z,60.70
2018-04-12T06:36:31.984Z,59.90
2018-04-12T06:39:01.913Z,59.80
2018-04-12T06:41:32.381Z,58.20
2018-04-12T06:44:05.985Z,58.20
2018-04-12T06:46:32.562Z,58.30
2018-04-12T06:49:03.941Z,57.60
2018-04-12T06:51:31.489Z,56.50
2018-04-12T06:54:00.357Z,56.30
2018-04-12T06:56:36.165Z,56.20
2018-04-12T06:59:04.848Z,55.90
2018-04-12T07:01:36.145Z,55.80
2018-04-12T07:04:05.420Z,55.50
2018-04-12T07:06:35.576Z,53.90
2018-04-12T07:09:05.834Z,54.10
2018-04-12T07:11:34.188Z,54.50
2018-04-12T07:14:05.599Z,54.80
2018-04-12T07:16:32.752Z,54.10
2018-04-12T07:19:08.043Z,54.30
2018-04-12T07:21:35.511Z,53.80
2018-04-12T07:24:13.038Z,54.00
2018-04-12T07:26:41.139Z,52.90
2018-04-12T07:29:10.747Z,52.20
2018-04-12T07:31:40.875Z,52.20
2018-04-12T07:34:08.770Z,51.50
2018-04-12T07:36:41.111Z,52.50
2018-04-12T07:39:11.405Z,51.40
2018-04-12T07:41:39.354Z,50.50
2018-04-12T07:44:05.845Z,50.50
2018-04-12T07:46:33.772Z,50.40
2018-04-12T07:49:01.550Z,50.80
2018-04-12T07:51:28.600Z,50.90
2018-04-12T07:53:55.339Z,48.70
2018-04-12T07:56:21.784Z,48.80
2018-04-12T07:58:48.530Z,49.70
2018-04-12T08:01:14.844Z,49.90
2018-04-12T08:03:41.234Z,49.30
2018-04-12T08:06:07.575Z,48.50
2018-04-12T08:08:34.102Z,48.50
2018-04-12T08:11:01.212Z,48.00
2018-04-12T08:13:27.952Z,48.30
2018-04-12T08:15:55.061Z,48.80
2018-04-12T08:18:21.835Z,47.80
2018-04-12T08:20:49.261Z,46.20
2018-04-12T08:23:15.593Z,46.20
2018-04-12T08:25:41.986Z,44.00
2018-04-12T08:28:08.349Z,44.70
2018-04-12T08:30:34.587Z,45.10
2018-04-12T08:33:00.917Z,44.40
2018-04-12T08:35:27.273Z,43.80
2018-04-12T08:37:53.623Z,44.10
2018-04-12T08:40:20.077Z,43.00
2018-04-12T08:42:46.332Z,43.90
2018-04-12T08:45:12.779Z,44.50
2018-04-12T08:47:39.593Z,41.10
2018-04-12T08:50:11.593Z,39.70
2018-04-12T08:52:40.089Z,39.80
2018-04-12T08:55:08.279Z,39.30
2018-04-12T08:57:42.215Z,38.70
2018-04-12T09:03:13.148Z,36.70
2018-04-12T09:05:42.532Z,36.50
2018-04-12T09:08:13.893Z,35.90
2018-04-12T09:16:46.750Z,35.10
2018-04-12T09:19:13.124Z,35.70
2018-04-12T09:21:39.364Z,35.40
2018-04-12T09:24:05.701Z,34.60
2018-04-12T09:26:32.198Z,35.80
2018-04-12T09:28:58.458Z,33.70
2018-04-12T09:31:24.965Z,34.10
2018-04-12T09:33:51.387Z,33.40
2018-04-12T09:36:18.134Z,34.20
2018-04-12T09:38:44.419Z,34.00
2018-04-12T09:41:10.981Z,33.30
2018-04-12T09:43:37.275Z,32.60
2018-04-12T09:46:04.087Z,31.50
2018-04-12T09:48:30.535Z,31.10
2018-04-12T09:50:58.051Z,31.20
2018-04-12T09:53:24.578Z,30.80
2018-04-12T09:55:51.416Z,31.30
2018-04-12T09:58:18.872Z,30.70
2018-04-12T10:00:52.741Z,30.40
2018-04-12T10:05:58.997Z,29.80
2018-04-12T10:08:42.209Z,30.00
2018-04-12T10:11:09.809Z,29.00
2018-04-12T10:13:39.141Z,28.60
2018-04-12T10:16:05.987Z,28.90
2018-04-12T10:18:53.897Z,28.70
2018-04-12T10:21:27.430Z,28.50
2018-04-12T10:23:57.341Z,28.50
2018-04-12T10:26:23.626Z,28.50
2018-04-12T10:28:49.929Z,29.70
2018-04-12T10:31:17.019Z,28.80
2018-04-12T10:36:27.236Z,28.40
2018-04-12T10:38:54.978Z,27.60
2018-04-12T10:41:21.347Z,27.70
2018-04-12T10:43:49.150Z,27.30
2018-04-12T10:46:16.021Z,28.50
2018-04-12T10:48:59.954Z,27.90
2018-04-12T10:51:26.974Z,27.30
2018-04-12T10:53:53.427Z,27.30
2018-04-12T10:56:19.911Z,26.90
2018-04-12T10:58:46.241Z,26.40
2018-04-12T11:01:12.581Z,27.20
2018-04-12T11:03:38.968Z,26.60
2018-04-12T11:06:10.214Z,26.60
2018-04-12T11:08:36.475Z,26.60
2018-04-12T11:11:02.959Z,27.00
2018-04-12T11:13:29.314Z,26.20
2018-04-12T11:15:55.680Z,26.20
2018-04-12T11:18:22.524Z,26.50
2018-04-12T11:20:49.101Z,25.60
2018-04-12T11:23:16.769Z,26.50
2018-04-12T11:25:43.876Z,26.50
2018-04-12T11:28:10.197Z,26.40
2018-04-12T11:30:36.466Z,26.10
2018-04-12T11:33:04.115Z,26.40
2018-04-12T11:35:30.411Z,26.70
2018-04-12T11:38:08.026Z,27.70
2018-04-12T11:40:34.405Z,26.90
2018-04-12T11:43:00.707Z,27.10
2018-04-12T11:45:27.028Z,26.90
2018-04-12T11:47:53.279Z,26.90
2018-04-12T11:50:19.570Z,26.70
2018-04-12T11:52:45.983Z,27.40
2018-04-12T11:55:12.351Z,27.10
2018-04-12T11:57:38.623Z,27.60
2018-04-12T12:00:05.174Z,27.30
2018-04-12T12:02:31.784Z,28.00
2018-04-12T12:04:58.851Z,27.50
2018-04-12T12:07:25.360Z,27.00
2018-04-12T12:09:52.173Z,26.80
2018-04-12T12:12:18.582Z,26.70
2018-04-12T12:14:44.991Z,25.60
2018-04-12T12:17:12.016Z,25.40
2018-04-12T12:19:38.295Z,25.40
2018-04-12T12:22:04.724Z,25.40
2018-04-12T12:24:31.722Z,25.90
2018-04-12T12:26:59.052Z,25.80
2018-04-12T12:29:26.264Z,24.60
2018-04-12T12:31:53.322Z,24.80
2018-04-12T12:34:19.522Z,24.20
2018-04-12T12:36:46.497Z,24.50
2018-04-12T12:39:14.550Z,24.50
2018-04-12T12:41:41.727Z,24.10
2018-04-12T12:44:08.752Z,24.00
2018-04-12T12:46:38.207Z,24.00
2018-04-12T12:49:04.808Z,25.40
2018-04-12T12:51:31.715Z,24.80
2018-04-12T12:53:58.141Z,24.60
2018-04-12T12:56:25.635Z,25.40
2018-04-12T12:58:52.318Z,25.30
2018-04-12T13:01:19.010Z,25.20
2018-04-12T13:03:45.421Z,25.80
2018-04-12T13:06:12.207Z,24.40
2018-04-12T13:08:38.609Z,25.00
2018-04-12T13:11:06.271Z,25.30
2018-04-12T13:13:33.300Z,24.90
2018-04-12T13:16:00.606Z,25.00
2018-04-12T13:18:27.973Z,25.90
2018-04-12T13:20:54.488Z,26.00
2018-04-12T13:23:24.827Z,26.70
2018-04-12T13:25:51.269Z,27.30
2018-04-12T13:28:17.912Z,26.80
2018-04-12T13:30:44.333Z,27.70
2018-04-12T13:33:10.690Z,28.10
2018-04-12T13:35:39.619Z,28.20
2018-04-12T13:38:06.182Z,27.90
2018-04-12T13:40:33.102Z,27.70
2018-04-12T13:42:59.579Z,28.60
2018-04-12T13:45:27.915Z,28.20
2018-04-12T13:47:56.334Z,28.70
2018-04-12T13:50:22.777Z,28.40
2018-04-12T13:52:49.174Z,28.30
2018-04-12T13:55:15.608Z,28.50
2018-04-12T13:57:41.919Z,28.70
2018-04-12T14:00:08.420Z,29.30
2018-04-12T14:02:34.840Z,28.30
2018-04-12T14:05:01.202Z,28.10
2018-04-12T14:07:27.914Z,27.50
2018-04-12T14:09:54.364Z,27.30
2018-04-12T14:12:20.687Z,26.90
2018-04-12T14:14:47.256Z,25.50
2018-04-12T14:17:14.275Z,24.70
2018-04-12T14:19:41.944Z,24.90
2018-04-12T14:22:08.525Z,24.60
2018-04-12T14:24:34.946Z,23.70
2018-04-12T14:27:01.331Z,23.00
2018-04-12T14:29:27.723Z,21.40
2018-04-12T14:31:54.006Z,21.50
2018-04-12T14:34:20.828Z,20.70
2018-04-12T14:36:48.134Z,21.00
2018-04-12T14:39:15.176Z,20.90
2018-04-12T14:41:41.729Z,20.70
2018-04-12T14:44:08.093Z,21.20
2018-04-12T14:46:34.427Z,22.10
2018-04-12T14:49:00.750Z,21.00
2018-04-12T14:51:27.165Z,20.80
2018-04-12T14:53:54.872Z,21.50
2018-04-12T14:56:22.307Z,21.50
2018-04-12T14:58:50.421Z,21.50
2018-04-12T15:01:16.897Z,20.30
2018-04-12T15:03:43.245Z,21.30
2018-04-12T15:06:09.587Z,21.00
2018-04-12T15:08:35.874Z,21.90
2018-04-12T15:11:03.177Z,21.60
2018-04-12T15:16:04.224Z,23.60
2018-04-12T15:18:30.700Z,23.40
2018-04-12T15:20:59.801Z,23.20
2018-04-12T15:23:29.292Z,23.70
2018-04-12T15:26:01.351Z,23.10
2018-04-12T15:28:35.559Z,23.00
2018-04-12T15:31:05.835Z,22.60
2018-04-12T15:33:32.146Z,22.60
2018-04-12T15:35:58.771Z,22.80
2018-04-12T15:38:25.366Z,22.20
2018-04-12T15:40:51.735Z,21.90
2018-04-12T15:43:18.051Z,21.20
2018-04-12T15:45:44.438Z,21.40
2018-04-12T15:48:11.909Z,22.30
2018-04-12T15:50:38.604Z,22.30
2018-04-12T15:53:05.015Z,23.10
2018-04-12T15:55:31.389Z,22.60
2018-04-12T15:57:57.669Z,22.70
2018-04-12T16:00:24.386Z,22.60
2018-04-12T16:02:50.743Z,23.00
2018-04-12T16:05:17.036Z,23.50
2018-04-12T16:07:43.312Z,23.10
2018-04-12T16:10:10.292Z,23.10
2018-04-12T16:12:37.530Z,22.90
2018-04-12T16:15:03.948Z,22.90
2018-04-12T16:17:30.219Z,23.30
2018-04-12T16:19:56.574Z,23.70
2018-04-12T16:22:23.676Z,23.50
2018-04-12T16:24:51.407Z,23.70
2018-04-12T16:27:17.893Z,23.60
2018-04-12T16:29:46.256Z,24.30
2018-04-12T16:32:12.637Z,23.60
2018-04-12T16:34:40.616Z,23.50
2018-04-12T16:37:09.448Z,23.50
2018-04-12T16:39:35.823Z,23.80
2018-04-12T16:45:04.718Z,24.30
2018-04-12T16:47:31.219Z,23.80
2018-04-12T16:49:57.530Z,24.20
2018-04-12T16:52:24.398Z,24.10
2018-04-12T16:54:53.533Z,24.80
2018-04-12T16:57:40.323Z,24.80
2018-04-12T17:00:06.681Z,25.10
2018-04-12T17:02:33.796Z,25.00
2018-04-12T17:05:00.088Z,24.20
2018-04-12T17:07:26.544Z,24.90
2018-04-12T17:09:52.888Z,24.60
2018-04-12T17:12:22.636Z,24.70
2018-04-12T17:14:49.140Z,24.90
2018-04-12T17:17:15.485Z,25.20
2018-04-12T17:19:43.130Z,25.30
2018-04-12T17:22:09.735Z,25.20
2018-04-12T17:24:39.336Z,26.30
2018-04-12T17:27:06.384Z,26.00
2018-04-12T17:29:33.428Z,26.30
2018-04-12T17:32:03.090Z,26.60
2018-04-12T17:34:35.355Z,27.00
2018-04-12T17:37:03.751Z,27.50
2018-04-12T17:39:30.200Z,27.60
2018-04-12T17:44:28.934Z,28.80
2018-04-12T17:46:55.507Z,28.90
2018-04-12T17:49:32.136Z,29.70
2018-04-12T17:51:58.652Z,30.00
2018-04-12T17:54:26.271Z,30.80
2018-04-12T17:56:53.093Z,31.00
2018-04-12T18:01:55.421Z,31.50
2018-04-12T18:04:23.082Z,32.00
2018-04-12T18:06:50.455Z,33.30
2018-04-12T18:09:19.379Z,34.00
2018-04-12T18:11:48.325Z,34.70
2018-04-12T18:14:19.584Z,34.70
2018-04-12T18:16:47.527Z,35.50
2018-04-12T18:19:14.141Z,34.70
2018-04-12T18:21:40.570Z,35.00
2018-04-12T18:24:07.799Z,36.30
2018-04-12T18:26:35.363Z,36.20
2018-04-12T18:29:07.443Z,37.30
2018-04-12T18:31:51.465Z,37.00
2018-04-12T18:34:18.654Z,39.00
2018-04-12T18:36:44.935Z,39.00
2018-04-12T18:39:11.346Z,38.80
2018-04-12T18:41:37.663Z,39.60
2018-04-12T18:44:03.897Z,39.00
2018-04-12T18:46:31.183Z,39.70
2018-04-12T18:48:57.452Z,39.60
2018-04-12T18:51:23.779Z,40.40
2018-04-12T18:53:50.106Z,39.50
2018-04-12T18:56:16.923Z,39.50
2018-04-12T18:58:43.265Z,39.50
2018-04-12T19:01:09.587Z,38.80
2018-04-12T19:03:36.025Z,39.50
2018-04-12T19:06:06.499Z,40.20
2018-04-12T19:08:33.484Z,41.30
2018-04-12T19:11:05.243Z,41.80
2018-04-12T19:16:37.224Z,42.10
2018-04-12T19:19:03.781Z,43.00
2018-04-12T19:21:30.055Z,42.70
2018-04-12T19:23:56.325Z,43.40
2018-04-12T19:26:22.687Z,43.10
2018-04-12T19:28:48.905Z,42.90
2018-04-12T19:31:15.385Z,43.40
2018-04-12T19:33:41.830Z,44.30
2018-04-12T19:36:08.383Z,44.20
2018-04-12T19:38:34.686Z,44.30
2018-04-12T19:41:01.768Z,43.80
2018-04-12T19:43:28.022Z,43.80
2018-04-12T19:45:54.451Z,43.60
2018-04-12T19:48:20.672Z,44.80
2018-04-12T19:50:46.886Z,44.90
2018-04-12T19:53:13.143Z,44.90
2018-04-12T19:55:40.912Z,46.20
2018-04-12T19:58:07.818Z,46.20
2018-04-12T20:00:34.558Z,45.90
2018-04-12T20:03:02.633Z,46.60
2018-04-12T20:05:29.073Z,45.90
2018-04-12T20:08:08.000Z,46.00
2018-04-12T20:10:35.516Z,46.40
2018-04-12T20:13:22.781Z,46.70
2018-04-12T20:15:50.134Z,46.50
2018-04-12T20:18:21.856Z,47.70
2018-04-12T20:21:05.502Z,47.70
2018-04-12T20:23:38.580Z,47.60
2018-04-12T20:44:38.894Z,50.00
2018-04-12T20:50:08.606Z,51.10
2018-04-12T20:52:35.300Z,51.30
2018-04-12T20:55:01.929Z,51.70
2018-04-12T20:57:31.085Z,52.50
2018-04-12T20:59:58.565Z,52.70
2018-04-12T21:02:36.040Z,52.80
2018-04-12T21:05:06.188Z,53.20
2018-04-12T21:10:35.905Z,52.20
2018-04-12T21:13:05.980Z,52.60
2018-04-12T21:15:38.386Z,52.00
2018-04-12T21:18:06.626Z,52.80
2018-04-12T21:23:36.192Z,53.80
2018-04-12T21:26:05.743Z,53.80
2018-04-12T21:28:36.078Z,53.40
2018-04-12T21:31:08.433Z,53.40
2018-04-12T21:33:35.989Z,53.70
2018-04-12T21:36:08.331Z,54.60
2018-04-12T21:38:34.738Z,55.70
2018-04-12T21:41:02.150Z,55.20
2018-04-12T21:43:36.278Z,55.60
2018-04-12T21:46:06.693Z,55.50
2018-04-12T21:48:46.975Z,55.40
2018-04-12T21:51:13.328Z,55.30
2018-04-12T21:53:39.666Z,55.90
2018-04-12T21:56:05.931Z,55.30
2018-04-12T21:58:32.187Z,56.40
2018-04-12T22:00:58.383Z,55.30
2018-04-12T22:03:24.642Z,55.80
2018-04-12T22:05:50.856Z,55.60
2018-04-12T22:08:18.091Z,56.10
2018-04-12T22:10:47.984Z,56.40
2018-04-12T22:13:15.293Z,56.60
2018-04-12T22:15:41.573Z,56.50
2018-04-12T22:18:07.957Z,56.50
2018-04-12T22:20:34.313Z,56.90
2018-04-12T22:23:00.638Z,57.90
2018-04-12T22:25:26.998Z,58.00
2018-04-12T22:27:54.695Z,57.60
2018-04-12T22:30:23.034Z,57.70
2018-04-12T22:32:49.763Z,57.90
2018-04-12T22:35:16.590Z,58.40
2018-04-12T22:37:43.015Z,58.80
2018-04-12T22:40:10.027Z,58.70
2018-04-12T22:42:37.584Z,58.60
2018-04-12T22:45:06.181Z,58.50
2018-04-12T22:47:36.125Z,59.20
2018-04-12T22:50:05.673Z,58.50
2018-04-12T22:52:36.448Z,58.80
2018-04-12T22:55:05.891Z,59.10
2018-04-12T22:57:36.041Z,58.70
2018-04-12T23:00:05.632Z,59.00
2018-04-12T23:02:35.761Z,59.70
2018-04-12T23:05:05.948Z,59.90
2018-04-12T23:07:37.233Z,59.60
2018-04-12T23:10:05.568Z,59.50
2018-04-12T23:12:31.814Z,59.80
2018-04-12T23:17:37.077Z,60.00
2018-04-12T23:20:07.333Z,60.50
2018-04-12T23:22:36.281Z,60.90
2018-04-12T23:25:02.549Z,60.10
2018-04-12T23:27:36.164Z,60.80
2018-04-12T23:30:11.604Z,60.50
2018-04-12T23:32:38.252Z,61.00
2018-04-12T23:35:04.775Z,60.60
2018-04-12T23:37:36.343Z,60.50
2018-04-12T23:40:07.217Z,60.60
2018-04-12T23:42:35.793Z,60.30
2018-04-12T23:45:08.517Z,60.30
2018-04-12T23:47:36.280Z,60.70
2018-04-12T23:50:06.628Z,61.60
2018-04-12T23:52:36.954Z,61.10
2018-04-12T23:55:06.185Z,61.50
2018-04-12T23:57:35.689Z,61.30
